Weather History for KRGK - September, 2013

Change the Weather History Date:

Monday, September 16, 2013

  Actual Average Record
Temperature  
Mean Temperature 54 °F -  
Max Temperature 66 °F 70 °F 86 °F (2003)
Min Temperature 41 °F 49 °F 35 °F (2014)
Degree Days  
Heating Degree Days 12    
Growing Degree Days 4 (Base 50)    
Moisture  
Dew Point 41 °F    
Average Humidity 69    
Maximum Humidity 93    
Minimum Humidity 32    
Precipitation  
Precipitation 0.00 in - - ()
Sea Level Pressure  
Sea Level Pressure 30.34 in    
Wind  
Wind Speed 4 mph (ESE)    
Max Wind Speed 12 mph    
Max Gust Speed -    
Visibility 10 miles    
Events      
Averages and records for this station are not official NWS values.
T = Trace of Precipitation, MM = Missing Value Source: NWS Daily Summary

Daily Weather History Graph

Daily Weather History Graph

Search for Another Location

Airport or City:

Trip Planner

Search our weather history database for the weather conditions in past years. The results will help you decide how hot, cold, wet, or windy it might be!

Date:

Astronomy

Sep. 16, 2013 Rise Set
Actual Time 6:50 AM CDT 7:18 PM CDT
Civil Twilight 6:21 AM CDT 7:47 PM CDT
Nautical Twilight 5:46 AM CDT 8:21 PM CDT
Astronomical Twilight 5:10 AM CDT 8:57 PM CDT
Moon 5:32 PM CDT (9/16) 3:30 AM CDT (9/16)
Length of Visible Light 13h 26m
Length of Day
12h 27m
Waxing Gibbous, 90% of the Moon is Illuminated
Sep 16
Waxing Gibbous
Sep 19
Full
Sep 26
Last Quarter
Oct 4
New
Oct 11
First Quarter

Hourly Weather History & Observations

Time (CDT) Temp. Windchill Dew Point Humidity Pressure Visibility Wind Dir Wind Speed Gust Speed Precip Events Conditions
12:15 AM 51.8 °F - 44.6 °F 76% 30.31 in 10.0 mi NE 3.5 mph - N/A   Clear
12:35 AM 50.0 °F - 44.6 °F 82% 30.31 in 10.0 mi NE 3.5 mph - N/A   Clear
12:55 AM 48.2 °F - 42.8 °F 82% 30.32 in 10.0 mi Calm Calm - N/A   Clear
1:15 AM 48.2 °F - 42.8 °F 82% 30.32 in 10.0 mi ENE 3.5 mph - N/A   Clear
1:35 AM 48.2 °F - 42.8 °F 82% 30.33 in 10.0 mi Calm Calm - N/A   Clear
1:55 AM 46.4 °F 45.2 °F 42.8 °F 87% 30.33 in 10.0 mi SE 3.5 mph - N/A   Clear
2:15 AM 44.6 °F - 42.8 °F 93% 30.33 in 10.0 mi Calm Calm - N/A   Clear
2:35 AM 44.6 °F - 42.8 °F 93% 30.33 in 10.0 mi Calm Calm - N/A   Clear
2:55 AM 44.6 °F - 42.8 °F 93% 30.34 in 10.0 mi Calm Calm - N/A   Clear
3:15 AM 42.8 °F - 41.0 °F 93% 30.34 in 10.0 mi Calm Calm - N/A   Clear
3:35 AM 42.8 °F - 39.2 °F 87% 30.34 in 10.0 mi Calm Calm - N/A   Clear
3:55 AM 42.8 °F - 41.0 °F 93% 30.35 in 10.0 mi Calm Calm - N/A   Clear
4:15 AM 41.0 °F - 39.2 °F 93% 30.35 in 10.0 mi Calm Calm - N/A   Clear
4:34 AM 41.0 °F - 39.2 °F 93% 30.35 in 10.0 mi Calm Calm - N/A   Clear
4:55 AM 41.0 °F 38.0 °F 39.2 °F 93% 30.36 in 10.0 mi NE 4.6 mph - N/A   Clear
5:15 AM 41.0 °F - 39.2 °F 93% 30.37 in 10.0 mi Calm Calm - N/A   Clear
5:34 AM 42.8 °F - 39.2 °F 87% 30.37 in 10.0 mi Calm Calm - N/A   Clear
5:55 AM 42.8 °F 39.3 °F 39.2 °F 87% 30.37 in 10.0 mi ENE 5.8 mph - N/A   Clear
6:15 AM 42.8 °F 38.6 °F 41.0 °F 93% 30.38 in 10.0 mi ENE 6.9 mph - N/A   Clear
6:34 AM 42.8 °F - 41.0 °F 93% 30.39 in 10.0 mi Calm Calm - N/A   Clear
6:55 AM 42.8 °F - 39.2 °F 87% 30.39 in 10.0 mi Calm Calm - N/A   Clear
7:15 AM 42.8 °F 39.3 °F 39.2 °F 87% 30.39 in 10.0 mi ESE 5.8 mph - N/A   Clear
7:34 AM 42.8 °F 40.1 °F 39.2 °F 87% 30.40 in 10.0 mi East 4.6 mph - N/A   Clear
7:55 AM 44.6 °F 41.4 °F 41.0 °F 87% 30.40 in 10.0 mi East 5.8 mph - N/A   Clear
8:15 AM 46.4 °F 42.9 °F 42.8 °F 87% 30.40 in 10.0 mi East 6.9 mph - N/A   Clear
8:34 AM 46.4 °F 43.5 °F 42.8 °F 87% 30.40 in 10.0 mi East 5.8 mph - N/A   Clear
8:55 AM 48.2 °F - 42.8 °F 82% 30.40 in 10.0 mi East 6.9 mph - N/A   Clear
9:15 AM 50.0 °F - 42.8 °F 76% 30.40 in 10.0 mi ESE 8.1 mph - N/A   Clear
9:34 AM 51.8 °F - 42.8 °F 71% 30.41 in 10.0 mi East 8.1 mph - N/A   Clear
9:55 AM 51.8 °F - 42.8 °F 71% 30.41 in 10.0 mi SE 11.5 mph - N/A   Clear
10:15 AM 53.6 °F - 42.8 °F 67% 30.41 in 10.0 mi ESE 11.5 mph - N/A   Clear
10:35 AM 55.4 °F - 42.8 °F 63% 30.41 in 10.0 mi ESE 8.1 mph - N/A   Clear
10:55 AM 55.4 °F - 39.2 °F 54% 30.41 in 10.0 mi SE 8.1 mph - N/A   Clear
11:15 AM 55.4 °F - 39.2 °F 54% 30.41 in 10.0 mi SE 6.9 mph - N/A   Clear
11:35 AM 55.4 °F - 39.2 °F 54% 30.41 in 10.0 mi SSE 6.9 mph - N/A   Clear
11:55 AM 57.2 °F - 39.2 °F 51% 30.40 in 10.0 mi SSE 5.8 mph - N/A   Clear
12:15 PM 59.0 °F - 41.0 °F 51% 30.40 in 10.0 mi SE 8.1 mph - N/A   Clear
12:35 PM 59.0 °F - 39.2 °F 48% 30.40 in 10.0 mi South 5.8 mph - N/A   Clear
12:55 PM 60.8 °F - 37.4 °F 42% 30.39 in 10.0 mi SE 6.9 mph - N/A   Clear
1:15 PM 60.8 °F - 37.4 °F 42% 30.38 in 10.0 mi SE 6.9 mph - N/A   Clear
1:35 PM 62.6 °F - 37.4 °F 39% 30.37 in 10.0 mi SE 9.2 mph - N/A   Clear
1:55 PM 62.6 °F - 37.4 °F 39% 30.37 in 10.0 mi SE 9.2 mph - N/A   Clear
2:15 PM 62.6 °F - 35.6 °F 37% 30.36 in 10.0 mi SE 5.8 mph - N/A   Clear
2:35 PM 64.4 °F - 35.6 °F 34% 30.36 in 10.0 mi SSE 6.9 mph - N/A   Clear
2:55 PM 64.4 °F - 35.6 °F 34% 30.35 in 10.0 mi ESE 6.9 mph - N/A   Clear
3:15 PM 64.4 °F - 33.8 °F 32% 30.34 in 10.0 mi ESE 6.9 mph - N/A   Clear
3:35 PM 64.4 °F - 35.6 °F 34% 30.33 in 10.0 mi SE 5.8 mph - N/A   Clear
3:55 PM 66.2 °F - 35.6 °F 32% 30.32 in 10.0 mi SE 8.1 mph - N/A   Clear
4:15 PM 66.2 °F - 35.6 °F 32% 30.32 in 10.0 mi SSE 5.8 mph - N/A   Clear
4:35 PM 66.2 °F - 37.4 °F 35% 30.31 in 10.0 mi East 5.8 mph - N/A   Clear
4:55 PM 66.2 °F - 35.6 °F 32% 30.31 in 10.0 mi ESE 6.9 mph - N/A   Clear
5:15 PM 66.2 °F - 37.4 °F 35% 30.30 in 10.0 mi SE 5.8 mph - N/A   Clear
5:35 PM 66.2 °F - 37.4 °F 35% 30.29 in 10.0 mi ESE 6.9 mph - N/A   Clear
5:55 PM 64.4 °F - 37.4 °F 37% 30.28 in 10.0 mi SSE 5.8 mph - N/A   Clear
6:14 PM 64.4 °F - 39.2 °F 40% 30.28 in 10.0 mi SSE 5.8 mph - N/A   Clear
6:35 PM 62.6 °F - 39.2 °F 42% 30.28 in 10.0 mi SSE 4.6 mph - N/A   Clear
6:55 PM 62.6 °F - 39.2 °F 42% 30.28 in 10.0 mi SSE 3.5 mph - N/A   Clear
7:15 PM 60.8 °F - 39.2 °F 45% 30.28 in 10.0 mi SSE 4.6 mph - N/A   Clear
7:35 PM 55.4 °F - 42.8 °F 63% 30.27 in 10.0 mi East 3.5 mph - N/A   Clear
7:55 PM 53.6 °F - 44.6 °F 72% 30.27 in 10.0 mi Calm Calm - N/A   Clear
8:15 PM 51.8 °F - 44.6 °F 76% 30.28 in 10.0 mi ENE 3.5 mph - N/A   Clear
8:35 PM 50.0 °F - 44.6 °F 82% 30.28 in 10.0 mi Calm Calm - N/A   Clear
8:55 PM 48.2 °F - 44.6 °F 87% 30.29 in 10.0 mi Calm Calm - N/A   Clear
9:15 PM 48.2 °F - 44.6 °F 87% 30.29 in 10.0 mi Calm Calm - N/A   Clear
9:35 PM 46.4 °F - 44.6 °F 93% 30.28 in 10.0 mi Calm Calm - N/A   Clear
9:55 PM 46.4 °F - 44.6 °F 93% 30.28 in 10.0 mi Calm Calm - N/A   Clear
10:15 PM 46.4 °F 45.2 °F 44.6 °F 93% 30.28 in 10.0 mi East 3.5 mph - N/A   Clear
10:35 PM 44.6 °F - 42.8 °F 93% 30.28 in 10.0 mi Calm Calm - N/A   Clear
10:55 PM 44.6 °F - 42.8 °F 93% 30.28 in 10.0 mi Calm Calm - N/A   Clear
11:15 PM 44.6 °F - 42.8 °F 93% 30.28 in 10.0 mi Calm Calm - N/A   Clear
11:35 PM 44.6 °F - 42.8 °F 93% 30.28 in 10.0 mi Calm Calm - N/A   Clear
11:55 PM 44.6 °F - 42.8 °F 93% 30.28 in 10.0 mi Calm Calm - N/A   Clear